createdAt,value
2017-02-11T00:00:01.107Z,97.24
2017-02-11T00:00:29.303Z,97.24
2017-02-11T00:00:57.400Z,97.42
2017-02-11T00:01:25.520Z,97.42
2017-02-11T00:01:53.723Z,97.24
2017-02-11T00:02:21.933Z,97.42
2017-02-11T00:02:49.952Z,97.62
2017-02-11T00:03:18.129Z,97.42
2017-02-11T00:03:46.106Z,97.62
2017-02-11T00:04:14.181Z,97.24
2017-02-11T00:04:42.245Z,97.24
2017-02-11T00:05:10.336Z,97.04
2017-02-11T00:05:38.472Z,97.33
2017-02-11T00:06:06.588Z,97.14
2017-02-11T00:06:34.705Z,97.33
2017-02-11T00:07:02.844Z,97.24
2017-02-11T00:07:30.984Z,97.42
2017-02-11T00:07:59.126Z,97.24
2017-02-11T00:08:27.393Z,97.62
2017-02-11T00:08:55.386Z,97.04
2017-02-11T00:09:23.372Z,97.24
2017-02-11T00:09:51.594Z,97.14
2017-02-11T00:10:19.587Z,97.52
2017-02-11T00:10:47.596Z,97.42
2017-02-11T00:11:15.555Z,97.33
2017-02-11T00:11:43.444Z,97.24
2017-02-11T00:12:11.340Z,97.33
2017-02-11T00:12:39.525Z,97.14
2017-02-11T00:13:07.609Z,97.42
2017-02-11T00:13:35.827Z,97.81
2017-02-11T00:14:04.002Z,97.72
2017-02-11T00:14:32.214Z,97.62
2017-02-11T00:15:00.398Z,97.62
2017-02-11T00:15:28.611Z,98.58
2017-02-11T00:15:56.762Z,98.29
2017-02-11T00:16:24.951Z,98.49
2017-02-11T00:16:53.149Z,98.29
2017-02-11T00:17:21.348Z,97.96
2017-02-11T00:17:49.559Z,98.73
2017-02-11T00:18:17.821Z,98.63
2017-02-11T00:18:45.842Z,99.02
2017-02-11T00:19:14.041Z,99.02
2017-02-11T00:19:42.231Z,99.02
2017-02-11T00:20:10.400Z,98.97
2017-02-11T00:20:38.599Z,99.02
2017-02-11T00:21:06.704Z,98.82
2017-02-11T00:21:34.847Z,99.21
2017-02-11T00:22:02.807Z,99.3
2017-02-11T00:22:30.887Z,99.02
2017-02-11T00:22:59.118Z,99.02
2017-02-11T00:23:27.236Z,99.21
2017-02-11T00:23:55.432Z,98.92
2017-02-11T00:24:23.449Z,98.87
2017-02-11T00:24:51.482Z,98.82
2017-02-11T00:25:19.583Z,98.92
2017-02-11T00:25:47.720Z,98.97
2017-02-11T00:26:15.870Z,99.07
2017-02-11T00:26:43.915Z,99.26
2017-02-11T00:27:12.078Z,99.02
2017-02-11T00:27:40.164Z,98.82
2017-02-11T00:28:08.176Z,99.26
2017-02-11T00:28:36.316Z,99.21
2017-02-11T00:29:04.537Z,99.6
2017-02-11T00:29:32.742Z,99.5
2017-02-11T00:30:00.861Z,99.6
2017-02-11T00:30:28.996Z,99.6
2017-02-11T00:30:57.181Z,99.79
2017-02-11T00:31:25.206Z,99.84
2017-02-11T00:31:53.325Z,99.6
2017-02-11T00:32:21.541Z,99.45
2017-02-11T00:32:49.858Z,99.26
2017-02-11T00:33:17.782Z,98.87
2017-02-11T00:33:45.828Z,98.87
2017-02-11T00:34:13.913Z,99.21
2017-02-11T00:34:42.051Z,98.87
2017-02-11T00:35:09.976Z,98.87
2017-02-11T00:35:38.005Z,98.97
2017-02-11T00:36:06.087Z,99.26
2017-02-11T00:36:34.298Z,99.07
2017-02-11T00:37:02.519Z,99.45
2017-02-11T00:37:30.538Z,99.26
2017-02-11T00:37:58.822Z,99.07
2017-02-11T00:38:27.109Z,99.07
2017-02-11T00:38:55.314Z,99.26
2017-02-11T00:39:23.236Z,98.68
2017-02-11T00:39:51.400Z,98.97
2017-02-11T00:40:19.596Z,99.07
2017-02-11T00:40:47.813Z,99.07
2017-02-11T00:41:15.903Z,98.87
2017-02-11T00:41:44.015Z,98.97
2017-02-11T00:42:12.220Z,98.97
2017-02-11T00:42:40.369Z,98.97
2017-02-11T00:43:08.525Z,98.97
2017-02-11T00:43:36.330Z,99.07
2017-02-11T00:44:04.554Z,99.07
2017-02-11T00:44:32.697Z,98.87
2017-02-11T00:45:00.758Z,98.97
2017-02-11T00:45:28.781Z,98.87
2017-02-11T00:45:56.965Z,98.87
2017-02-11T00:46:25.082Z,99.26
2017-02-11T00:46:53.172Z,99.26
2017-02-11T00:47:21.348Z,99.16
2017-02-11T00:47:49.687Z,99.84
2017-02-11T00:48:17.775Z,99.84
2017-02-11T00:48:45.866Z,99.5
2017-02-11T00:49:13.917Z,99.74
2017-02-11T00:49:42.018Z,99.65
2017-02-11T00:50:09.938Z,99.65
2017-02-11T00:50:37.964Z,99.65
2017-02-11T00:51:05.988Z,99.93
2017-02-11T00:51:34.193Z,99.84
2017-02-11T00:52:02.296Z,99.35
2017-02-11T00:52:30.467Z,99.45
2017-02-11T00:52:58.695Z,99.55
2017-02-11T00:53:26.588Z,99.26
2017-02-11T00:53:54.529Z,99.45
2017-02-11T00:54:22.477Z,99.07
2017-02-11T00:54:50.611Z,99.45
2017-02-11T00:55:18.727Z,99.26
2017-02-11T00:55:46.744Z,99.55
2017-02-11T00:56:14.901Z,99.74
2017-02-11T00:56:43.113Z,99.84
2017-02-11T00:57:11.092Z,99.55
2017-02-11T00:57:39.152Z,99.99
2017-02-11T00:58:07.385Z,99.99
2017-02-11T00:58:35.552Z,99.5
2017-02-11T00:59:03.689Z,99.99
2017-02-11T00:59:31.781Z,99.74
2017-02-11T00:59:59.780Z,99.84
2017-02-11T01:00:27.799Z,99.99
2017-02-11T01:00:55.960Z,99.65
2017-02-11T01:01:24.034Z,99.65
2017-02-11T01:01:52.149Z,99.99
2017-02-11T01:02:20.313Z,99.99
2017-02-11T01:02:48.444Z,99.99
2017-02-11T01:03:16.618Z,99.93
2017-02-11T01:03:44.827Z,99.84
2017-02-11T01:04:12.845Z,99.93
2017-02-11T01:04:40.935Z,99.93
2017-02-11T01:05:09.152Z,99.93
2017-02-11T01:05:37.260Z,99.99
2017-02-11T01:06:05.391Z,99.99
2017-02-11T01:06:33.474Z,99.99
2017-02-11T01:07:01.527Z,99.99
2017-02-11T01:07:29.529Z,99.99
2017-02-11T01:07:57.574Z,99.93
2017-02-11T01:08:25.788Z,99.93
2017-02-11T01:08:54.036Z,99.93
2017-02-11T01:09:22.166Z,99.65
2017-02-11T01:09:50.346Z,99.84
2017-02-11T01:10:18.402Z,99.84
2017-02-11T01:10:46.568Z,99.99
2017-02-11T01:11:14.766Z,99.65
2017-02-11T01:11:42.787Z,99.65
2017-02-11T01:12:10.930Z,99.74
2017-02-11T01:12:39.050Z,99.65
2017-02-11T01:13:07.239Z,99.99
2017-02-11T01:13:35.423Z,99.55
2017-02-11T01:14:03.506Z,99.65
2017-02-11T01:14:31.496Z,99.65
2017-02-11T01:14:59.530Z,99.65
2017-02-11T01:15:27.747Z,99.93
2017-02-11T01:15:55.831Z,99.99
2017-02-11T01:16:23.983Z,99.65
2017-02-11T01:16:51.994Z,99.65
2017-02-11T01:17:20.057Z,99.99
2017-02-11T01:17:48.245Z,99.99
2017-02-11T01:18:16.503Z,99.65
2017-02-11T01:18:44.626Z,99.99
2017-02-11T01:19:12.641Z,99.99
2017-02-11T01:19:40.694Z,99.99
2017-02-11T01:20:08.707Z,99.74
2017-02-11T01:20:36.920Z,99.84
2017-02-11T01:21:05.085Z,99.65
2017-02-11T01:21:33.176Z,99.84
2017-02-11T01:22:01.275Z,99.99
2017-02-11T01:22:29.391Z,99.84
2017-02-11T01:22:57.628Z,99.65
2017-02-11T01:23:25.947Z,99.65
2017-02-11T01:23:54.237Z,99.99
2017-02-11T01:24:22.244Z,99.99
2017-02-11T01:24:50.360Z,99.99
2017-02-11T01:25:18.542Z,99.99
2017-02-11T01:25:46.613Z,99.99
2017-02-11T01:26:14.814Z,99.99
2017-02-11T01:26:43.052Z,99.55
2017-02-11T01:27:11.218Z,99.74
2017-02-11T01:27:39.438Z,99.99
2017-02-11T01:28:07.484Z,99.93
2017-02-11T01:28:35.492Z,99.74
2017-02-11T01:29:03.738Z,99.93
2017-02-11T01:29:31.735Z,99.55
2017-02-11T01:29:59.637Z,99.93
2017-02-11T01:30:27.867Z,99.84
2017-02-11T01:30:55.801Z,99.84
2017-02-11T01:31:23.910Z,99.99
2017-02-11T01:31:51.995Z,99.99
2017-02-11T01:32:20.850Z,99.65
2017-02-11T01:32:48.863Z,99.99
2017-02-11T01:33:17.097Z,99.74
2017-02-11T01:33:45.220Z,99.74
2017-02-11T01:34:13.372Z,99.93
2017-02-11T01:34:41.512Z,99.74
2017-02-11T01:35:09.803Z,99.99
2017-02-11T01:35:37.970Z,99.99
2017-02-11T01:36:05.958Z,99.69
2017-02-11T01:36:34.189Z,99.84
2017-02-11T01:37:02.280Z,99.4
2017-02-11T01:37:30.506Z,99.35
2017-02-11T01:37:58.611Z,99.74
2017-02-11T01:38:26.918Z,99.35
2017-02-11T01:38:54.970Z,99.74
2017-02-11T01:39:23.062Z,99.84
2017-02-11T01:39:51.252Z,99.84
2017-02-11T01:40:19.255Z,99.84
2017-02-11T01:40:47.348Z,99.55
2017-02-11T01:41:15.447Z,99.84
2017-02-11T01:41:43.677Z,99.74
2017-02-11T01:42:11.866Z,99.84
2017-02-11T01:42:40.095Z,99.74
2017-02-11T01:43:08.088Z,99.93
2017-02-11T01:43:36.295Z,99.74
2017-02-11T01:44:04.428Z,99.65
2017-02-11T01:44:32.531Z,99.99
2017-02-11T01:45:00.562Z,99.35
2017-02-11T01:45:28.752Z,99.35
2017-02-11T01:45:56.980Z,99.07
2017-02-11T01:46:25.055Z,99.45
2017-02-11T01:46:53.037Z,99.26
2017-02-11T01:47:21.052Z,99.26
2017-02-11T01:47:49.326Z,99.35
2017-02-11T01:48:17.567Z,99.35
2017-02-11T01:48:45.670Z,99.65
2017-02-11T01:49:13.812Z,99.26
2017-02-11T01:49:41.934Z,99.84
2017-02-11T01:50:09.972Z,99.84
2017-02-11T01:50:38.213Z,99.35
2017-02-11T01:51:06.306Z,99.26
2017-02-11T01:51:34.410Z,98.87
2017-02-11T01:52:02.515Z,98.97
2017-02-11T01:52:30.688Z,99.26
2017-02-11T01:52:58.622Z,99.26
2017-02-11T01:53:26.932Z,99.16
2017-02-11T01:53:55.121Z,99.26
2017-02-11T01:54:23.147Z,99.26
2017-02-11T01:54:51.183Z,99.26
2017-02-11T01:55:19.194Z,99.16
2017-02-11T01:55:47.426Z,99.16
2017-02-11T01:56:15.429Z,99.35
2017-02-11T01:56:43.595Z,98.58
2017-02-11T01:57:11.685Z,98.39
2017-02-11T01:57:39.860Z,98.68
2017-02-11T01:58:08.105Z,98.58
2017-02-11T01:58:36.287Z,98.68
2017-02-11T01:59:04.406Z,98.2
2017-02-11T01:59:32.504Z,98
2017-02-11T02:00:00.563Z,98
2017-02-11T02:00:28.780Z,98.39
2017-02-11T02:00:56.787Z,98.2
2017-02-11T02:01:24.787Z,98.2
2017-02-11T02:01:52.896Z,98.1
2017-02-11T02:02:21.001Z,98.2
2017-02-11T02:02:48.902Z,98.29
2017-02-11T02:03:16.953Z,98.68
2017-02-11T02:03:45.259Z,98.58
2017-02-11T02:04:13.262Z,98.68
2017-02-11T02:04:41.384Z,99.35
2017-02-11T02:05:09.466Z,99.35
2017-02-11T02:05:37.566Z,98.49
2017-02-11T02:06:05.785Z,99.35
2017-02-11T02:06:34.030Z,99.02
2017-02-11T02:07:02.236Z,98.87
2017-02-11T02:07:30.459Z,98.82
2017-02-11T02:07:58.534Z,99.02
2017-02-11T02:08:26.628Z,99.02
2017-02-11T02:08:54.787Z,99.11
2017-02-11T02:09:22.808Z,99.69
2017-02-11T02:09:50.827Z,99.88
2017-02-11T02:10:19.041Z,99.79
2017-02-11T02:10:47.174Z,99.88
2017-02-11T02:11:15.175Z,99.69
2017-02-11T02:11:43.377Z,99.6
2017-02-11T02:12:11.335Z,99.6
2017-02-11T02:12:39.438Z,99.88
2017-02-11T02:13:07.472Z,99.4
2017-02-11T02:13:35.737Z,99.79
2017-02-11T02:14:03.658Z,99.88
2017-02-11T02:14:31.661Z,99.98
2017-02-11T02:14:59.842Z,99.98
2017-02-11T02:15:28.026Z,99.98
2017-02-11T02:15:56.149Z,99.99
2017-02-11T02:16:24.263Z,99.4
2017-02-11T02:16:52.369Z,99.88
2017-02-11T02:17:20.497Z,99.35
2017-02-11T02:17:48.625Z,99.16
2017-02-11T02:18:16.795Z,99.88
2017-02-11T02:18:44.968Z,99.79
2017-02-11T02:19:13.055Z,99.79
2017-02-11T02:19:41.280Z,99.65
2017-02-11T02:20:09.453Z,99.5
2017-02-11T02:20:37.481Z,99.69
2017-02-11T02:21:05.758Z,99.6
2017-02-11T02:21:33.822Z,99.4
2017-02-11T02:22:01.798Z,99.6
2017-02-11T02:22:29.994Z,99.88
2017-02-11T02:22:58.185Z,99.11
2017-02-11T02:23:26.302Z,99.79
2017-02-11T02:23:54.598Z,99.4
2017-02-11T02:24:22.701Z,99.5
2017-02-11T02:24:50.869Z,99.4
2017-02-11T02:25:19.006Z,99.88
2017-02-11T02:25:47.135Z,99.88
2017-02-11T02:26:15.149Z,99.88
2017-02-11T02:26:43.264Z,99.69
2017-02-11T02:27:11.480Z,99.69
2017-02-11T02:27:39.675Z,99.79
2017-02-11T02:28:07.877Z,99.74
2017-02-11T02:28:35.895Z,99.69
2017-02-11T02:29:04.182Z,99.98
2017-02-11T02:29:32.440Z,99.69
2017-02-11T02:30:00.438Z,99.88
2017-02-11T02:30:28.512Z,99.98
2017-02-11T02:30:56.510Z,99.79
2017-02-11T02:31:24.792Z,99.6
2017-02-11T02:31:53.021Z,99.6
2017-02-11T02:32:21.140Z,99.79
2017-02-11T02:32:49.287Z,99.6
2017-02-11T02:33:17.315Z,99.79
2017-02-11T02:33:45.432Z,99.6
2017-02-11T02:34:13.412Z,99.98
2017-02-11T02:34:41.646Z,99.98
2017-02-11T02:35:09.681Z,99.79
2017-02-11T02:35:37.859Z,99.98
2017-02-11T02:36:06.076Z,99.79
2017-02-11T02:36:34.207Z,99.69
2017-02-11T02:37:02.327Z,99.98
2017-02-11T02:37:30.255Z,99.6
2017-02-11T02:37:58.418Z,99.99
2017-02-11T02:38:26.726Z,99.69
2017-02-11T02:38:54.943Z,99.98
2017-02-11T02:39:23.074Z,99.99
2017-02-11T02:39:51.186Z,99.99
2017-02-11T02:40:19.290Z,99.69
2017-02-11T02:40:47.375Z,99.79
2017-02-11T02:41:15.384Z,99.69
2017-02-11T02:41:43.319Z,99.79
2017-02-11T02:42:11.427Z,99.79
2017-02-11T02:42:39.784Z,99.5
2017-02-11T02:43:07.859Z,99.5
2017-02-11T02:43:36.049Z,99.99
2017-02-11T02:44:04.268Z,99.99
2017-02-11T02:44:32.473Z,99.98
2017-02-11T02:45:00.562Z,99.79
2017-02-11T02:45:28.769Z,99.99
2017-02-11T02:45:56.757Z,99.6
2017-02-11T02:46:24.978Z,99.88
2017-02-11T02:46:53.177Z,99.99
2017-02-11T02:47:21.476Z,99.99
2017-02-11T02:47:49.520Z,99.99
2017-02-11T02:48:17.769Z,99.99
2017-02-11T02:48:45.853Z,99.99
2017-02-11T02:49:13.948Z,99.99
2017-02-11T02:49:42.373Z,99.99
2017-02-11T02:50:10.513Z,99.99
2017-02-11T02:50:38.707Z,99.99
2017-02-11T02:51:06.857Z,99.99
2017-02-11T02:51:35.162Z,99.99
2017-02-11T02:52:03.367Z,99.99
2017-02-11T02:52:31.458Z,99.99
2017-02-11T02:52:59.683Z,99.99
2017-02-11T02:53:27.938Z,99.99
2017-02-11T02:53:56.141Z,99.99
2017-02-11T02:54:24.347Z,99.99
2017-02-11T02:54:52.477Z,99.99
2017-02-11T02:55:20.728Z,99.99
2017-02-11T02:55:48.753Z,99.99
2017-02-11T02:56:16.836Z,99.99
2017-02-11T02:56:44.924Z,99.99
2017-02-11T02:57:13.036Z,99.99
2017-02-11T02:57:41.237Z,99.99
2017-02-11T02:58:09.269Z,99.99
2017-02-11T02:58:37.543Z,99.99
2017-02-11T02:59:05.564Z,99.99
2017-02-11T02:59:33.638Z,99.99
2017-02-11T03:00:01.730Z,99.99
2017-02-11T03:00:29.838Z,99.99
2017-02-11T03:00:58.084Z,99.99
2017-02-11T03:01:26.081Z,99.99
2017-02-11T03:01:54.337Z,99.99
2017-02-11T03:02:22.437Z,99.99
2017-02-11T03:02:50.642Z,99.99
2017-02-11T03:03:18.733Z,99.99
2017-02-11T03:03:46.829Z,99.99
2017-02-11T03:04:14.935Z,99.99
2017-02-11T03:04:43.150Z,99.99
2017-02-11T03:05:11.103Z,99.99
2017-02-11T03:05:39.043Z,99.99
2017-02-11T03:06:07.255Z,99.99
2017-02-11T03:06:35.428Z,99.99
2017-02-11T03:07:03.642Z,99.99
2017-02-11T03:07:31.848Z,99.99
2017-02-11T03:07:59.898Z,99.99
2017-02-11T03:08:27.941Z,99.99
2017-02-11T03:08:56.021Z,99.99
2017-02-11T03:09:24.445Z,99.99
2017-02-11T03:09:52.548Z,99.99
2017-02-11T03:10:20.568Z,99.99
2017-02-11T03:10:48.527Z,99.99
2017-02-11T03:11:16.795Z,99.99
2017-02-11T03:11:44.852Z,99.99
2017-02-11T03:12:12.778Z,99.99
2017-02-11T03:12:40.891Z,99.99
2017-02-11T03:13:09.086Z,99.99
2017-02-11T03:13:37.027Z,99.99
2017-02-11T03:14:05.143Z,99.99
2017-02-11T03:14:33.281Z,99.99
2017-02-11T03:15:01.549Z,99.99
2017-02-11T03:15:29.681Z,99.99
2017-02-11T03:15:57.890Z,99.99
2017-02-11T03:16:26.180Z,99.99
2017-02-11T03:16:54.377Z,99.99
2017-02-11T03:17:22.473Z,99.99
2017-02-11T03:17:50.578Z,99.99
2017-02-11T03:18:19.014Z,99.99
2017-02-11T03:18:47.148Z,99.99
2017-02-11T03:19:15.319Z,99.99
2017-02-11T03:19:43.477Z,99.99
2017-02-11T03:20:11.749Z,99.99
2017-02-11T03:20:39.757Z,99.99
2017-02-11T03:21:07.836Z,99.99
2017-02-11T03:21:36.220Z,99.99
2017-02-11T03:22:04.443Z,99.99
2017-02-11T03:22:32.405Z,99.99
2017-02-11T03:23:00.404Z,99.99
2017-02-11T03:23:28.548Z,99.99
2017-02-11T03:23:56.795Z,99.99
2017-02-11T03:24:25.026Z,99.99
2017-02-11T03:24:53.050Z,99.99
2017-02-11T03:25:20.992Z,99.99
2017-02-11T03:25:49.146Z,99.99
2017-02-11T03:26:16.891Z,99.99
2017-02-11T03:26:45.132Z,99.99
2017-02-11T03:27:13.246Z,99.99
2017-02-11T03:27:41.484Z,99.99
2017-02-11T03:28:09.506Z,99.99
2017-02-11T03:28:37.591Z,99.99
2017-02-11T03:29:05.448Z,99.99
2017-02-11T03:29:33.734Z,99.99
2017-02-11T03:30:01.866Z,99.99
2017-02-11T03:30:29.958Z,99.99
2017-02-11T03:30:58.226Z,99.99
2017-02-11T03:31:26.155Z,99.99
2017-02-11T03:31:54.312Z,99.99
2017-02-11T03:32:22.410Z,99.99
2017-02-11T03:32:50.638Z,99.99
2017-02-11T03:33:18.657Z,99.99
2017-02-11T03:33:46.780Z,99.99
2017-02-11T03:34:14.963Z,99.99
2017-02-11T03:34:43.255Z,99.99
2017-02-11T03:35:11.419Z,99.99
2017-02-11T03:35:39.417Z,99.99
2017-02-11T03:36:07.490Z,99.99
2017-02-11T03:36:35.691Z,99.99
2017-02-11T03:37:03.837Z,99.99
2017-02-11T03:37:32.072Z,99.99
2017-02-11T03:38:00.361Z,99.99
2017-02-11T03:38:28.570Z,99.99
2017-02-11T03:38:56.663Z,99.99
2017-02-11T03:39:24.938Z,99.99
2017-02-11T03:39:53.231Z,99.99
2017-02-11T03:40:21.265Z,99.99
2017-02-11T03:40:49.356Z,99.99
2017-02-11T03:41:17.460Z,99.99
2017-02-11T03:41:45.481Z,99.99
2017-02-11T03:42:13.605Z,99.99
2017-02-11T03:42:41.790Z,99.99
2017-02-11T03:43:09.888Z,99.99
2017-02-11T03:43:37.994Z,99.99
2017-02-11T03:44:06.125Z,99.99
2017-02-11T03:44:34.456Z,99.99
2017-02-11T03:45:02.559Z,99.99
2017-02-11T03:45:30.565Z,99.99
2017-02-11T03:45:58.704Z,99.99
2017-02-11T03:46:26.811Z,99.99
2017-02-11T03:46:54.929Z,99.99
2017-02-11T03:47:23.125Z,99.99
2017-02-11T03:47:51.306Z,99.99
2017-02-11T03:48:19.416Z,99.99
2017-02-11T03:48:47.559Z,99.99
2017-02-11T03:49:15.650Z,99.99
2017-02-11T03:49:43.852Z,99.99
2017-02-11T03:50:12.019Z,99.99
2017-02-11T03:50:40.124Z,99.99
2017-02-11T03:51:08.231Z,99.99
2017-02-11T03:51:36.141Z,99.99
2017-02-11T03:52:04.171Z,99.99
2017-02-11T03:52:32.272Z,99.99
2017-02-11T03:53:00.505Z,99.99
2017-02-11T03:53:28.597Z,99.99
2017-02-11T03:53:56.788Z,99.99
2017-02-11T03:54:24.818Z,99.99
2017-02-11T03:54:53.204Z,99.99
2017-02-11T03:55:21.301Z,99.99
2017-02-11T03:55:49.533Z,99.99
2017-02-11T03:56:17.524Z,99.99
2017-02-11T03:56:45.785Z,99.99
2017-02-11T03:57:13.910Z,99.99
2017-02-11T03:57:41.834Z,99.99
2017-02-11T03:58:10.249Z,99.99
2017-02-11T03:58:38.395Z,99.99
2017-02-11T03:59:06.539Z,99.99
2017-02-11T03:59:34.682Z,99.99
2017-02-11T04:00:02.861Z,99.99
2017-02-11T04:00:30.863Z,99.99
2017-02-11T04:00:58.972Z,99.99
2017-02-11T04:01:27.199Z,99.99
2017-02-11T04:01:55.276Z,99.99
2017-02-11T04:02:23.412Z,99.99
2017-02-11T04:02:51.553Z,99.99
2017-02-11T04:03:19.734Z,99.99
2017-02-11T04:03:47.990Z,99.99
2017-02-11T04:04:16.124Z,99.99
2017-02-11T04:04:44.316Z,99.99
2017-02-11T04:05:12.548Z,99.99
2017-02-11T04:05:40.633Z,99.99
2017-02-11T04:06:08.742Z,99.99
2017-02-11T04:06:36.952Z,99.99
2017-02-11T04:07:04.922Z,99.99
2017-02-11T04:07:32.913Z,99.99
2017-02-11T04:08:01.064Z,99.99
2017-02-11T04:08:29.156Z,99.99
2017-02-11T04:08:57.243Z,99.99
2017-02-11T04:09:25.342Z,99.99
2017-02-11T04:09:53.411Z,99.99
2017-02-11T04:10:21.564Z,99.99
2017-02-11T04:10:49.912Z,99.99
2017-02-11T04:11:18.061Z,99.99
2017-02-11T04:11:46.107Z,99.99
2017-02-11T04:12:14.108Z,99.99
2017-02-11T04:12:42.282Z,99.99
2017-02-11T04:13:10.368Z,99.99
2017-02-11T04:13:38.570Z,99.99
2017-02-11T04:14:06.465Z,99.99
2017-02-11T04:14:34.409Z,99.99
2017-02-11T04:15:02.593Z,99.99
2017-02-11T04:15:30.799Z,99.99
2017-02-11T04:15:58.945Z,99.99
2017-02-11T04:16:27.059Z,99.99
2017-02-11T04:16:55.202Z,99.99
2017-02-11T04:17:23.380Z,99.99
2017-02-11T04:17:51.503Z,99.99
2017-02-11T04:18:19.877Z,99.99
2017-02-11T04:18:48.024Z,99.99
2017-02-11T04:19:16.131Z,99.99
2017-02-11T04:19:44.177Z,99.99
2017-02-11T04:20:12.512Z,99.99
2017-02-11T04:20:40.456Z,99.99
2017-02-11T04:21:08.534Z,99.99
2017-02-11T04:21:36.564Z,99.99
2017-02-11T04:22:04.685Z,99.99
2017-02-11T04:22:32.835Z,99.99
2017-02-11T04:23:00.951Z,99.99
2017-02-11T04:23:29.007Z,99.99
2017-02-11T04:23:57.212Z,99.99
2017-02-11T04:24:25.313Z,99.99
2017-02-11T04:24:53.538Z,99.99
2017-02-11T04:25:21.530Z,99.99
2017-02-11T04:25:49.752Z,99.99
2017-02-11T04:26:17.977Z,99.99
2017-02-11T04:26:46.057Z,99.99
2017-02-11T04:27:14.179Z,99.99
2017-02-11T04:27:42.279Z,99.99
2017-02-11T04:28:10.237Z,99.99
2017-02-11T04:28:38.347Z,99.99
2017-02-11T04:29:06.597Z,99.99
2017-02-11T04:29:34.425Z,99.99
2017-02-11T04:30:02.740Z,99.99
2017-02-11T04:30:30.841Z,99.99
2017-02-11T04:30:58.850Z,99.99
2017-02-11T04:31:26.810Z,99.99
2017-02-11T04:31:54.963Z,99.99
2017-02-11T04:32:23.183Z,99.99
2017-02-11T04:32:51.281Z,99.99
2017-02-11T04:33:19.360Z,99.99
2017-02-11T04:33:47.575Z,99.99
2017-02-11T04:34:15.701Z,99.99
2017-02-11T04:34:43.697Z,99.99
2017-02-11T04:35:11.929Z,99.99
2017-02-11T04:35:40.030Z,99.99
2017-02-11T04:36:08.152Z,99.99
2017-02-11T04:36:36.348Z,99.99
2017-02-11T04:37:04.396Z,99.99
2017-02-11T04:37:32.305Z,99.99
2017-02-11T04:38:00.392Z,99.99
2017-02-11T04:38:28.643Z,99.99
2017-02-11T04:38:56.860Z,99.99
2017-02-11T04:39:25.121Z,99.99
2017-02-11T04:39:53.303Z,99.99
2017-02-11T04:40:21.603Z,99.99
2017-02-11T04:40:49.798Z,99.99
2017-02-11T04:41:17.777Z,99.99
2017-02-11T04:41:45.898Z,99.99
2017-02-11T04:42:14.039Z,99.99
2017-02-11T04:42:42.203Z,99.99
2017-02-11T04:43:10.285Z,99.99
2017-02-11T04:43:38.327Z,99.99
2017-02-11T04:44:06.551Z,99.99
2017-02-11T04:44:34.609Z,99.99
2017-02-11T04:45:02.739Z,99.99
2017-02-11T04:45:30.865Z,99.99
2017-02-11T04:45:58.959Z,99.99
2017-02-11T04:46:26.994Z,99.99
2017-02-11T04:46:55.234Z,99.99
2017-02-11T04:47:23.333Z,99.99
2017-02-11T04:47:51.544Z,99.99
2017-02-11T04:48:19.721Z,99.99
2017-02-11T04:48:47.738Z,99.99
2017-02-11T04:49:15.877Z,99.99
2017-02-11T04:49:44.157Z,99.99
2017-02-11T04:50:12.530Z,99.99
2017-02-11T04:50:40.621Z,99.99
2017-02-11T04:51:08.649Z,99.99
2017-02-11T04:51:36.836Z,99.99
2017-02-11T04:52:04.936Z,99.99
2017-02-11T04:52:33.029Z,99.99
2017-02-11T04:53:01.043Z,99.99
2017-02-11T04:53:29.164Z,99.99
2017-02-11T04:53:57.246Z,99.99
2017-02-11T04:54:25.339Z,99.99
2017-02-11T04:54:53.544Z,99.99
2017-02-11T04:55:21.646Z,99.99
2017-02-11T04:55:49.690Z,99.99
2017-02-11T04:56:17.873Z,99.99
2017-02-11T04:56:46.068Z,99.99
2017-02-11T04:57:14.212Z,99.99
2017-02-11T04:57:42.396Z,99.99
2017-02-11T04:58:10.589Z,99.99
2017-02-11T04:58:38.752Z,99.99
2017-02-11T04:59:06.930Z,99.99
2017-02-11T04:59:35.070Z,99.99
2017-02-11T05:00:03.146Z,99.99
2017-02-11T05:00:31.286Z,99.99
2017-02-11T05:00:59.297Z,99.99
2017-02-11T05:01:27.299Z,99.99
2017-02-11T05:01:55.506Z,99.99
2017-02-11T05:02:23.489Z,99.99
2017-02-11T05:02:51.698Z,99.99
2017-02-11T05:03:19.881Z,99.99
2017-02-11T05:03:47.957Z,99.99
2017-02-11T05:04:16.236Z,99.99
2017-02-11T05:04:44.250Z,99.99
2017-02-11T05:05:12.536Z,99.99
2017-02-11T05:05:40.891Z,99.99
2017-02-11T05:06:09.017Z,99.99
2017-02-11T05:06:37.137Z,99.99
2017-02-11T05:07:05.181Z,99.99
2017-02-11T05:07:33.262Z,99.99
2017-02-11T05:08:01.381Z,99.99
2017-02-11T05:08:29.323Z,99.99
2017-02-11T05:08:57.506Z,99.99
2017-02-11T05:09:25.650Z,99.99
2017-02-11T05:09:53.792Z,99.99
2017-02-11T05:10:22.003Z,99.99
2017-02-11T05:10:50.207Z,99.99
2017-02-11T05:11:18.083Z,99.99
2017-02-11T05:11:46.196Z,99.99
2017-02-11T05:12:14.338Z,99.99
2017-02-11T05:12:42.517Z,99.99
2017-02-11T05:13:10.606Z,99.99
2017-02-11T05:13:38.594Z,99.99
2017-02-11T05:14:06.568Z,99.99
2017-02-11T05:14:34.806Z,99.99
2017-02-11T05:15:03.018Z,99.99
2017-02-11T05:15:31.300Z,99.99
2017-02-11T05:15:59.352Z,99.99
2017-02-11T05:16:27.230Z,99.99
2017-02-11T05:16:55.448Z,99.99
2017-02-11T05:17:23.765Z,99.99
2017-02-11T05:17:51.870Z,99.99
2017-02-11T05:18:19.976Z,99.99
2017-02-11T05:18:48.318Z,99.99
2017-02-11T05:19:16.522Z,99.99
2017-02-11T05:19:44.694Z,99.99
2017-02-11T05:20:12.791Z,99.99
2017-02-11T05:20:41.143Z,99.99
2017-02-11T05:21:09.333Z,99.99
2017-02-11T05:21:37.419Z,99.99
2017-02-11T05:22:05.514Z,99.99
2017-02-11T05:22:33.608Z,99.99
2017-02-11T05:23:01.888Z,99.99
2017-02-11T05:23:30.113Z,99.99
2017-02-11T05:23:58.292Z,99.99
2017-02-11T05:24:26.462Z,99.99
2017-02-11T05:24:54.615Z,99.99
2017-02-11T05:25:22.632Z,99.99
2017-02-11T05:25:50.956Z,99.99
2017-02-11T05:26:19.075Z,99.99
2017-02-11T05:26:47.276Z,99.99
2017-02-11T05:27:15.499Z,99.99
2017-02-11T05:27:43.616Z,99.99
2017-02-11T05:28:11.889Z,99.99
2017-02-11T05:28:39.868Z,99.99
2017-02-11T05:29:07.855Z,99.99
2017-02-11T05:29:35.903Z,99.99
2017-02-11T05:30:04.135Z,99.99
2017-02-11T05:30:32.178Z,99.99
2017-02-11T05:31:00.434Z,99.99
2017-02-11T05:31:28.442Z,99.99
2017-02-11T05:31:56.724Z,99.99
2017-02-11T05:32:24.963Z,99.99
2017-02-11T05:32:53.145Z,99.99
2017-02-11T05:33:21.179Z,99.99
2017-02-11T05:33:49.408Z,99.99
2017-02-11T05:34:17.267Z,99.99
2017-02-11T05:34:45.449Z,99.99
2017-02-11T05:35:13.586Z,99.99
2017-02-11T05:35:41.596Z,99.99
2017-02-11T05:36:09.802Z,99.99
2017-02-11T05:36:38.088Z,99.99
2017-02-11T05:37:06.418Z,99.99
2017-02-11T05:37:34.335Z,99.99
2017-02-11T05:38:02.340Z,99.99
2017-02-11T05:38:30.748Z,99.99
2017-02-11T05:38:58.834Z,99.99
2017-02-11T05:39:27.019Z,99.99
2017-02-11T05:39:55.135Z,99.99
2017-02-11T05:40:23.237Z,99.99
2017-02-11T05:40:51.317Z,99.99
2017-02-11T05:41:19.421Z,99.99
2017-02-11T05:41:47.599Z,99.99
2017-02-11T05:42:15.814Z,99.99
2017-02-11T05:42:43.936Z,99.99
2017-02-11T05:43:12.070Z,99.99
2017-02-11T05:43:40.196Z,99.99
2017-02-11T05:44:08.521Z,99.99
2017-02-11T05:44:36.509Z,99.99
2017-02-11T05:45:04.730Z,99.99
2017-02-11T05:45:32.752Z,99.99
2017-02-11T05:46:01.062Z,99.99
2017-02-11T05:46:29.184Z,99.99
2017-02-11T05:46:57.330Z,99.99
2017-02-11T05:47:25.513Z,99.99
2017-02-11T05:47:53.651Z,99.99
2017-02-11T05:48:21.635Z,99.99
2017-02-11T05:48:49.751Z,99.99
2017-02-11T05:49:17.896Z,99.99
2017-02-11T05:49:45.981Z,99.99
2017-02-11T05:50:14.100Z,99.99
2017-02-11T05:50:42.331Z,99.99
2017-02-11T05:51:10.513Z,99.99
2017-02-11T05:51:38.639Z,99.99
2017-02-11T05:52:06.681Z,99.99
2017-02-11T05:52:34.754Z,99.99
2017-02-11T05:53:02.928Z,99.99
2017-02-11T05:53:31.131Z,99.99
2017-02-11T05:53:59.320Z,99.99
2017-02-11T05:54:27.491Z,99.99
2017-02-11T05:54:55.614Z,99.99
2017-02-11T05:55:23.763Z,99.99
2017-02-11T05:55:51.954Z,99.99
2017-02-11T05:56:20.237Z,99.99
2017-02-11T05:56:48.126Z,99.99
2017-02-11T05:57:16.323Z,99.99
2017-02-11T05:57:44.421Z,99.99
2017-02-11T05:58:12.554Z,99.99
2017-02-11T05:58:40.736Z,99.99
2017-02-11T05:59:08.761Z,99.99
2017-02-11T05:59:36.703Z,99.99
2017-02-11T06:00:04.902Z,99.99
2017-02-11T06:00:32.948Z,99.99
2017-02-11T06:01:00.877Z,99.99
2017-02-11T06:01:29.089Z,99.99
2017-02-11T06:01:57.179Z,99.99
2017-02-11T06:02:25.171Z,99.99